Time;durP1;ratioP1;P1;durP2;ratioP2;P2;SDS_P1;SDS_P2;PMS_P1;PMS_P2;Temp;Humidity;BMP_temperature;BMP_pressure;BME280_temperature;BME280_humidity;BME280_pressure;Samples;Min_cycle;Max_cycle;Signal;HPM_P1;HPM_P2
2023/09/14 00:09:29;;;;;;;5.50;5.10;;;;;;;17.64;93.62;99299.28;435342;1256;139318;-68
2023/09/14 00:19:35;;;;;;;6.70;5.20;;;;;;;17.59;94.04;99307.57;435528;1254;139227;-68
2023/09/14 00:29:41;;;;;;;5.90;5.40;;;;;;;17.64;94.42;99304.27;435442;1254;138828;-69
2023/09/14 00:39:47;;;;;;;6.30;5.70;;;;;;;17.69;94.60;99311.68;435472;1254;139031;-67
2023/09/14 00:49:53;;;;;;;11.00;6.50;;;;;;;17.74;94.71;99310.14;435536;1254;138889;-68
2023/09/14 00:59:59;;;;;;;8.60;7.40;;;;;;;17.78;94.53;99324.40;435266;1254;139675;-68
2023/09/14 01:10:06;;;;;;;7.60;7.00;;;;;;;17.79;94.27;99331.80;435337;1257;139062;-68
2023/09/14 01:20:30;;;;;;;6.70;5.70;;;;;;;17.72;93.53;99336.06;435827;1254;138929;-68
2023/09/14 01:30:37;;;;;;;4.50;3.80;;;;;;;17.65;93.36;99337.59;435594;1257;138813;-68
2023/09/14 01:40:45;;;;;;;4.00;3.60;;;;;;;17.59;92.91;99350.52;435276;1254;138939;-68
2023/09/14 01:50:51;;;;;;;6.30;4.70;;;;;;;17.52;92.65;99357.77;437223;1254;139836;-68
2023/09/14 02:00:57;;;;;;;4.90;3.90;;;;;;;17.43;92.30;99366.45;436249;1254;138614;-67
2023/09/14 02:11:03;;;;;;;6.00;4.80;;;;;;;17.38;92.35;99376.33;435676;1254;139269;-66
2023/09/14 02:21:10;;;;;;;5.40;4.40;;;;;;;17.29;92.13;99378.88;435484;1254;138912;-67
2023/09/14 02:31:17;;;;;;;4.80;4.40;;;;;;;17.23;92.18;99381.91;436252;1254;138824;-68
2023/09/14 02:41:24;;;;;;;7.20;6.60;;;;;;;17.19;92.16;99389.42;435373;1254;138912;-67
2023/09/14 02:51:29;;;;;;;6.00;5.30;;;;;;;17.14;92.13;99398.01;435499;1254;138914;-67
2023/09/14 03:01:35;;;;;;;5.60;5.00;;;;;;;17.11;92.20;99411.02;435760;1254;140875;-67
2023/09/14 03:11:41;;;;;;;6.50;5.80;;;;;;;17.07;92.19;99423.39;437000;1253;138891;-68
2023/09/14 03:21:47;;;;;;;5.10;4.60;;;;;;;17.05;92.18;99444.48;436116;1253;139094;-68
2023/09/14 03:31:53;;;;;;;5.70;5.20;;;;;;;17.01;92.43;99452.58;435626;1254;139375;-68
2023/09/14 03:41:59;;;;;;;7.30;4.80;;;;;;;17.00;92.51;99466.66;436042;1253;138782;-69
2023/09/14 03:52:06;;;;;;;6.70;6.10;;;;;;;16.99;92.56;99480.23;436158;1254;138870;-68
2023/09/14 04:02:12;;;;;;;8.30;7.60;;;;;;;16.98;92.82;99493.55;436101;1254;138877;-68
2023/09/14 04:12:18;;;;;;;9.60;8.70;;;;;;;16.99;92.87;99506.56;435693;1252;140377;-68
2023/09/14 04:22:24;;;;;;;8.80;8.00;;;;;;;16.98;92.95;99519.92;436044;1256;138699;-69
2023/09/14 04:32:30;;;;;;;10.70;9.50;;;;;;;16.96;92.93;99532.42;436234;1256;140085;-69
2023/09/14 04:42:36;;;;;;;10.50;9.20;;;;;;;16.97;93.23;99539.96;435683;1253;139131;-68
2023/09/14 04:52:42;;;;;;;9.00;8.20;;;;;;;16.99;93.40;99545.98;435298;1253;139632;-68
2023/09/14 05:02:47;;;;;;;9.10;8.10;;;;;;;17.02;93.70;99551.74;435761;1253;140276;-67
2023/09/14 05:12:53;;;;;;;9.70;8.70;;;;;;;17.08;93.78;99551.91;436031;1254;138753;-68
2023/09/14 05:22:59;;;;;;;8.80;8.00;;;;;;;17.17;93.99;99568.91;435653;1254;139795;-68
2023/09/14 05:33:07;;;;;;;10.10;8.90;;;;;;;17.29;93.96;99568.91;436046;1256;139030;-68
2023/09/14 05:43:13;;;;;;;13.00;8.40;;;;;;;17.37;93.77;99577.20;436065;1256;140214;-67
2023/09/14 05:53:19;;;;;;;10.10;9.00;;;;;;;17.44;93.51;99574.61;435561;1254;140519;-59
2023/09/14 06:03:25;;;;;;;8.50;7.00;;;;;;;17.52;93.28;99581.86;435419;1252;139756;-63
2023/09/14 06:13:31;;;;;;;10.60;7.00;;;;;;;17.53;93.31;99586.34;435156;1254;139999;-69
2023/09/14 06:23:37;;;;;;;11.60;7.70;;;;;;;17.60;93.13;99593.43;435133;1254;139223;-67
2023/09/14 06:33:42;;;;;;;12.00;6.20;;;;;;;17.66;92.96;99602.77;435317;1254;140224;-68
2023/09/14 06:43:49;;;;;;;5.80;5.20;;;;;;;17.97;93.02;99610.04;435182;1252;138834;-68
2023/09/14 06:53:54;;;;;;;9.00;5.40;;;;;;;18.54;92.06;99610.09;435249;1256;140379;-71
2023/09/14 07:04:01;;;;;;;4.90;4.50;;;;;;;18.98;90.55;99620.05;435373;1256;138910;-67
2023/09/14 07:14:07;;;;;;;6.30;5.70;;;;;;;19.34;89.22;99625.55;435765;1253;138699;-67
2023/09/14 07:24:13;;;;;;;5.30;4.80;;;;;;;19.47;87.58;99644.33;435397;1255;139363;-62
2023/09/14 07:34:19;;;;;;;4.50;3.80;;;;;;;21.14;87.26;99653.02;436025;1253;141152;-67
2023/09/14 07:44:25;;;;;;;3.60;3.20;;;;;;;21.88;82.00;99659.19;436015;1254;138857;-73
2023/09/14 07:54:34;;;;;;;2.40;2.20;;;;;;;23.95;77.86;99665.77;435947;1252;138918;-70
2023/09/14 08:04:40;;;;;;;3.70;2.10;;;;;;;28.43;74.13;99672.21;436164;1256;139182;-72
2023/09/14 08:14:46;;;;;;;;;;;;;;;31.56;60.77;99680.16;438744;1256;139909;-76
2023/09/14 08:24:54;;;;;;;4.00;2.50;;;;;;;29.18;54.49;99688.11;438407;1256;124395;-68
2023/09/14 08:35:19;;;;;;;3.70;3.40;;;;;;;26.35;55.06;99695.73;436153;1252;139378;-64
2023/09/14 08:45:28;;;;;;;3.50;2.90;;;;;;;24.32;56.84;99706.21;436371;1253;138091;-74
2023/09/14 08:55:37;;;;;;;3.50;3.30;;;;;;;22.97;58.84;99714.37;439273;1252;138371;-70
2023/09/14 09:05:43;;;;;;;4.10;3.40;;;;;;;22.25;60.43;99720.37;436780;1253;139020;-73
2023/09/14 09:15:50;;;;;;;5.00;3.00;;;;;;;21.73;61.78;99726.98;437660;1256;139066;-72
2023/09/14 09:25:56;;;;;;;6.00;4.40;;;;;;;21.33;62.77;99729.99;435657;1253;137976;-69
2023/09/14 09:36:14;;;;;;;2.60;2.30;;;;;;;20.90;63.65;99731.30;437478;1253;138197;-77
2023/09/14 09:46:19;;;;;;;3.40;2.20;;;;;;;20.67;64.52;99743.38;438092;1254;140244;-68
2023/09/14 09:56:27;;;;;;;2.60;1.40;;;;;;;20.64;65.13;99750.16;435489;1254;138936;-67
2023/09/14 10:06:32;;;;;;;2.00;1.60;;;;;;;20.67;65.55;99755.01;435497;1253;140144;-74
2023/09/14 10:16:43;;;;;;;2.00;1.80;;;;;;;20.44;65.73;99767.08;435672;1256;139153;-72
2023/09/14 10:26:50;;;;;;;3.80;1.90;;;;;;;19.99;66.50;99773.24;435360;1253;138867;-66
2023/09/14 10:36:59;;;;;;;2.30;1.60;;;;;;;19.83;67.49;99781.56;435513;1254;139616;-66
2023/09/14 10:47:06;;;;;;;1.90;1.50;;;;;;;19.95;67.81;99787.14;435372;1254;139289;-67
2023/09/14 10:57:24;;;;;;;3.40;1.50;;;;;;;20.06;68.01;99782.64;435600;1253;139562;-66
2023/09/14 11:07:42;;;;;;;2.50;2.30;;;;;;;19.95;67.98;99792.64;435552;1254;139394;-72
2023/09/14 11:17:49;;;;;;;2.50;2.30;;;;;;;19.94;68.40;99794.54;436349;1256;139077;-73
2023/09/14 11:27:56;;;;;;;2.60;2.10;;;;;;;20.02;68.50;99802.83;438545;1253;138780;-71
2023/09/14 11:38:16;;;;;;;3.20;3.00;;;;;;;20.06;68.80;99799.92;438373;1253;138623;-69
2023/09/14 11:48:23;;;;;;;3.30;3.00;;;;;;;20.21;69.08;99796.27;435591;1256;138906;-70
2023/09/14 11:58:35;;;;;;;3.30;3.00;;;;;;;21.01;68.92;99792.52;437123;1256;139235;-66
2023/09/14 12:08:50;;;;;;;4.80;2.80;;;;;;;21.60;67.64;99801.29;435103;1253;152809;-66
2023/09/14 12:18:56;;;;;;;5.00;3.20;;;;;;;21.89;66.63;99803.13;438412;1253;139049;-72
2023/09/14 12:29:03;;;;;;;2.30;2.10;;;;;;;21.83;66.07;99807.33;438267;1252;139021;-69
2023/09/14 12:39:15;;;;;;;4.00;3.20;;;;;;;21.63;66.02;99813.11;435522;1254;138824;-75
2023/09/14 12:49:20;;;;;;;3.50;2.90;;;;;;;21.74;66.12;99816.41;438403;1255;138902;-73
2023/09/14 12:59:28;;;;;;;3.90;3.10;;;;;;;21.94;66.12;99814.63;437661;1254;139708;-64
2023/09/14 13:09:34;;;;;;;2.70;2.50;;;;;;;21.95;65.48;99808.98;435776;1254;140354;-66
2023/09/14 13:19:40;;;;;;;4.40;3.50;;;;;;;21.71;65.28;99801.98;435619;1256;139342;-67
2023/09/14 13:29:46;;;;;;;2.30;2.20;;;;;;;21.71;65.38;99802.72;435389;1253;138815;-67
2023/09/14 13:39:52;;;;;;;2.40;2.00;;;;;;;21.68;64.89;99809.08;435389;1254;139224;-66
2023/09/14 13:49:58;;;;;;;2.50;2.40;;;;;;;21.61;64.70;99813.33;435741;1256;139327;-63
2023/09/14 14:00:07;;;;;;;3.50;2.30;;;;;;;21.77;65.24;99811.86;436532;1254;139162;-63
2023/09/14 14:10:13;;;;;;;3.00;2.30;;;;;;;21.98;64.70;99809.61;435811;1254;138762;-63
2023/09/14 14:20:19;;;;;;;2.70;1.70;;;;;;;22.09;64.07;99806.82;435943;1254;140033;-64
2023/09/14 14:30:25;;;;;;;1.60;1.50;;;;;;;21.84;63.46;99805.56;435634;1254;139470;-61
2023/09/14 14:40:31;;;;;;;2.40;1.80;;;;;;;21.57;63.77;99814.16;435374;1254;139792;-69
2023/09/14 14:50:40;;;;;;;1.50;1.30;;;;;;;21.22;64.46;99811.81;435094;1253;140562;-72
2023/09/14 15:00:46;;;;;;;5.60;1.80;;;;;;;21.05;65.05;99813.52;435262;1256;138763;-69
2023/09/14 15:10:52;;;;;;;3.00;1.90;;;;;;;20.90;65.41;99815.23;436065;1253;138841;-70
2023/09/14 15:21:00;;;;;;;2.40;2.20;;;;;;;20.74;66.03;99821.88;435335;1254;139368;-63
2023/09/14 15:31:16;;;;;;;3.00;2.00;;;;;;;20.63;66.45;99824.95;435517;1256;138842;-63
2023/09/14 15:41:21;;;;;;;1.70;1.40;;;;;;;20.48;66.33;99828.91;435473;1256;138968;-63
2023/09/14 15:51:29;;;;;;;3.20;2.90;;;;;;;20.32;66.33;99840.90;435413;1253;139211;-63
2023/09/14 16:01:35;;;;;;;1.40;1.10;;;;;;;19.93;66.21;99848.64;435734;1254;139988;-62
2023/09/14 16:11:41;;;;;;;2.10;1.90;;;;;;;19.61;66.60;99856.34;435334;1256;140189;-62
2023/09/14 16:21:47;;;;;;;2.70;1.50;;;;;;;19.46;67.21;99857.23;435130;1254;140171;-67
2023/09/14 16:31:53;;;;;;;1.70;1.50;;;;;;;19.23;67.88;99865.48;435375;1254;139092;-63
2023/09/14 16:41:59;;;;;;;2.50;1.70;;;;;;;18.93;68.78;99875.02;435257;1256;139456;-64
2023/09/14 16:52:05;;;;;;;5.20;1.20;;;;;;;18.64;69.40;99881.81;435182;1256;139031;-64
2023/09/14 17:02:11;;;;;;;;;;;;;;;18.27;70.15;99889.84;435569;1256;140005;-63
2023/09/14 17:12:17;;;;;;;2.80;0.70;;;;;;;17.92;70.42;99902.15;435985;1256;125373;-63
2023/09/14 17:22:25;;;;;;;2.50;1.10;;;;;;;17.69;71.05;99915.17;435328;1256;139947;-64
2023/09/14 17:32:31;;;;;;;1.60;1.10;;;;;;;17.57;71.91;99919.06;435360;1256;140969;-63
2023/09/14 17:42:37;;;;;;;1.20;0.60;;;;;;;17.45;72.52;99920.65;435323;1258;140317;-63
2023/09/14 17:52:43;;;;;;;2.90;0.90;;;;;;;17.29;73.40;99933.70;435718;1254;138771;-64
2023/09/14 18:02:49;;;;;;;1.50;1.10;;;;;;;17.18;74.56;99937.95;435380;1256;140682;-64
2023/09/14 18:12:54;;;;;;;3.00;1.10;;;;;;;17.08;75.43;99939.73;435395;1257;139188;-63
2023/09/14 18:23:01;;;;;;;2.40;1.10;;;;;;;17.01;76.19;99950.05;435475;1257;139534;-64
2023/09/14 18:33:07;;;;;;;3.30;1.10;;;;;;;16.97;76.85;99954.60;435456;1253;139140;-65
2023/09/14 18:43:13;;;;;;;5.60;1.30;;;;;;;16.94;77.32;99953.94;435652;1256;138747;-63
2023/09/14 18:53:19;;;;;;;1.20;0.80;;;;;;;16.97;77.78;99966.44;435660;1256;139760;-62
2023/09/14 19:03:26;;;;;;;2.10;1.30;;;;;;;17.00;78.02;99974.38;436072;1256;138614;-64
2023/09/14 19:13:32;;;;;;;4.80;1.10;;;;;;;17.00;78.16;99983.18;435918;1254;138733;-62
2023/09/14 19:23:38;;;;;;;1.90;1.20;;;;;;;17.02;78.44;99994.72;435633;1256;141846;-61
2023/09/14 19:33:44;;;;;;;2.40;1.10;;;;;;;17.01;78.41;99996.16;435392;1255;140266;-61
2023/09/14 19:43:50;;;;;;;2.00;1.10;;;;;;;17.04;78.13;100001.27;435653;1256;138720;-61
2023/09/14 19:53:56;;;;;;;1.50;1.30;;;;;;;17.04;78.06;100006.55;435574;1256;138882;-61
2023/09/14 20:04:01;;;;;;;2.50;1.70;;;;;;;17.03;77.93;100007.90;435490;1254;139010;-62
2023/09/14 20:14:08;;;;;;;2.40;1.10;;;;;;;17.01;78.12;100013.71;436116;1256;141021;-61
2023/09/14 20:24:14;;;;;;;1.30;0.80;;;;;;;16.99;78.30;100020.71;436311;1254;139108;-61
2023/09/14 20:34:19;;;;;;;1.40;1.30;;;;;;;16.97;78.45;100027.30;435461;1256;139394;-60
2023/09/14 20:44:25;;;;;;;3.20;2.90;;;;;;;16.94;78.58;100028.61;435496;1255;139393;-61
2023/09/14 20:54:32;;;;;;;3.50;1.60;;;;;;;16.93;78.94;100036.64;436445;1254;138774;-61
2023/09/14 21:04:38;;;;;;;2.10;1.60;;;;;;;16.93;79.20;100038.58;435742;1254;141305;-60
2023/09/14 21:14:48;;;;;;;3.90;2.00;;;;;;;16.90;79.55;100042.13;435782;1256;139340;-61
2023/09/14 21:24:58;;;;;;;3.40;2.00;;;;;;;16.90;79.64;100045.54;436197;1254;138881;-62
2023/09/14 21:35:05;;;;;;;3.40;2.40;;;;;;;16.90;79.34;100055.45;436729;1254;139111;-60
2023/09/14 21:45:11;;;;;;;3.10;2.20;;;;;;;16.86;79.05;100048.86;435917;1253;139283;-59
2023/09/14 21:55:17;;;;;;;3.90;1.80;;;;;;;16.78;78.70;100051.80;436164;1257;139058;-62
2023/09/14 22:05:24;;;;;;;2.60;1.60;;;;;;;16.67;78.42;100058.75;435476;1253;139099;-61
2023/09/14 22:15:32;;;;;;;2.00;1.50;;;;;;;16.52;78.43;100065.97;435404;1254;139684;-62
2023/09/14 22:25:41;;;;;;;3.40;2.00;;;;;;;16.38;78.46;100072.55;436131;1253;139161;-61
2023/09/14 22:35:47;;;;;;;1.90;1.70;;;;;;;16.24;78.10;100076.83;435768;1254;140155;-62
2023/09/14 22:45:56;;;;;;;2.20;1.60;;;;;;;16.13;77.82;100083.87;436055;1254;140135;-62
2023/09/14 22:56:03;;;;;;;2.10;1.90;;;;;;;16.02;77.30;100084.91;435450;1256;139008;-62
2023/09/14 23:06:11;;;;;;;2.90;1.40;;;;;;;15.86;76.76;100080.29;435951;1254;140234;-61
2023/09/14 23:16:16;;;;;;;;;;;;;;;15.68;76.42;100081.02;435659;1255;140592;-62
2023/09/14 23:26:22;;;;;;;2.10;1.90;;;;;;;15.53;76.30;100089.55;435487;1256;126934;-60
2023/09/14 23:36:29;;;;;;;2.50;1.60;;;;;;;15.41;76.33;100099.31;435640;1254;140185;-61
2023/09/14 23:46:35;;;;;;;3.20;1.70;;;;;;;15.28;76.49;100105.04;435372;1256;141190;-61
2023/09/14 23:56:41;;;;;;;1.80;1.60;;;;;;;15.19;76.74;100103.59;435831;1256;139532;-61
